Time;durP1;ratioP1;P1;durP2;ratioP2;P2;SDS_P1;SDS_P2;PMS_P1;PMS_P2;Temp;Humidity;BMP_temperature;BMP_pressure;BME280_temperature;BME280_humidity;BME280_pressure;Samples;Min_cycle;Max_cycle;Signal;HPM_P1;HPM_P2
2022/04/19 00:02:01;;;;;;;5.93;3.12;;;;;;;4.19;100.00;98417.91;4356921;32;20373;-77
2022/04/19 00:04:28;;;;;;;8.32;3.75;;;;;;;4.08;100.00;98410.66;4352152;32;20061;-84
2022/04/19 00:06:54;;;;;;;8.23;3.33;;;;;;;3.92;100.00;98401.41;4355323;32;20028;-77
2022/04/19 00:09:21;;;;;;;5.47;2.90;;;;;;;3.95;100.00;98407.09;4354078;32;20044;-78
2022/04/19 00:11:47;;;;;;;15.52;2.87;;;;;;;3.94;100.00;98415.31;4357132;32;20384;-77
2022/04/19 00:14:14;;;;;;;5.97;2.55;;;;;;;3.70;100.00;98377.06;4356889;32;20040;-84
2022/04/19 00:16:40;;;;;;;5.25;2.78;;;;;;;3.53;100.00;98369.66;4355551;32;20062;-79
2022/04/19 00:19:07;;;;;;;8.48;3.45;;;;;;;3.74;100.00;98415.53;4357739;32;20433;-77
2022/04/19 00:21:33;;;;;;;6.15;3.17;;;;;;;3.76;100.00;98418.78;4357331;32;20081;-78
2022/04/19 00:24:00;;;;;;;4.03;2.58;;;;;;;3.48;100.00;98372.19;4358077;32;20050;-78
2022/04/19 00:26:26;;;;;;;5.95;2.95;;;;;;;3.67;100.00;98409.47;4357912;32;20043;-77
2022/04/19 00:28:52;;;;;;;5.12;3.47;;;;;;;3.43;100.00;98374.66;4355614;32;20083;-78
2022/04/19 00:31:19;;;;;;;7.60;2.70;;;;;;;3.49;100.00;98370.31;4349310;32;20098;-78
2022/04/19 00:33:47;;;;;;;4.40;2.62;;;;;;;3.73;100.00;98408.59;4354325;32;20036;-77
2022/04/19 00:36:13;;;;;;;6.85;2.87;;;;;;;3.53;100.00;98372.31;4341503;33;20074;-77
2022/04/19 00:38:47;;;;;;;5.15;3.20;;;;;;;3.54;100.00;98368.66;4353034;32;20043;-83
2022/04/19 00:41:14;;;;;;;3.60;2.72;;;;;;;3.48;100.00;98358.88;4342251;32;20044;-78
2022/04/19 00:43:40;;;;;;;6.95;2.87;;;;;;;3.58;100.00;98391.09;4342323;33;20075;-77
2022/04/19 00:46:07;;;;;;;6.00;2.83;;;;;;;3.67;100.00;98394.31;4342553;33;20037;-77
2022/04/19 00:48:34;;;;;;;8.80;2.62;;;;;;;3.61;100.00;98397.84;4342195;33;20402;-77
2022/04/19 00:51:01;;;;;;;4.70;2.65;;;;;;;3.66;100.00;98386.56;4350074;32;20028;-82
2022/04/19 00:53:28;;;;;;;8.45;3.05;;;;;;;3.69;100.00;98386.09;4342025;33;20538;-77
2022/04/19 00:55:55;;;;;;;8.05;3.65;;;;;;;3.54;100.00;98384.63;4342472;33;20044;-78
2022/04/19 00:58:22;;;;;;;5.15;3.08;;;;;;;3.49;100.00;98379.09;4359915;32;20031;-77
2022/04/19 01:00:50;;;;;;;5.87;2.50;;;;;;;3.35;100.00;98322.56;4350291;32;20070;-77
2022/04/19 01:03:18;;;;;;;4.60;2.78;;;;;;;3.37;100.00;98330.31;4340342;33;20040;-77
2022/04/19 01:05:47;;;;;;;3.78;2.33;;;;;;;3.67;100.00;98361.53;4362503;32;20036;-78
2022/04/19 01:08:15;;;;;;;4.95;2.53;;;;;;;3.40;100.00;98316.59;4364743;32;20044;-77
2022/04/19 01:10:45;;;;;;;3.90;2.80;;;;;;;3.67;100.00;98346.37;4360880;32;20036;-82
2022/04/19 01:13:18;;;;;;;4.78;2.58;;;;;;;3.68;100.00;98347.19;4348729;32;20054;-77
2022/04/19 01:15:50;;;;;;;6.35;3.30;;;;;;;3.52;100.00;98317.44;4347571;32;20044;-77
2022/04/19 01:18:20;;;;;;;3.50;2.62;;;;;;;3.40;100.00;98288.09;4358721;32;20044;-77
2022/04/19 01:20:50;;;;;;;12.25;3.00;;;;;;;3.74;100.00;98356.97;4347108;32;20050;-78
2022/04/19 01:23:19;;;;;;;5.35;2.53;;;;;;;3.73;100.00;98344.69;4354519;32;20069;-77
2022/04/19 01:25:46;;;;;;;5.72;2.90;;;;;;;3.34;100.00;98298.81;4350854;32;20024;-76
2022/04/19 01:28:13;;;;;;;11.63;4.03;;;;;;;3.66;100.00;98343.94;4348905;32;20061;-77
2022/04/19 01:30:43;;;;;;;3.62;2.50;;;;;;;3.55;100.00;98305.56;4349685;32;20084;-79
2022/04/19 01:33:10;;;;;;;5.32;2.87;;;;;;;3.71;100.00;98320.94;4365447;32;20050;-77
2022/04/19 01:35:38;;;;;;;3.50;2.97;;;;;;;3.70;100.00;98326.47;4354711;32;20047;-79
2022/04/19 01:38:05;;;;;;;7.15;3.12;;;;;;;3.70;100.00;98323.81;4355823;32;20070;-77
2022/04/19 01:40:32;;;;;;;4.45;3.37;;;;;;;3.68;100.00;98312.59;4356069;32;20065;-77
2022/04/19 01:43:02;;;;;;;9.13;3.37;;;;;;;3.52;100.00;98280.19;4354330;32;20351;-80
2022/04/19 01:45:30;;;;;;;3.08;2.80;;;;;;;3.53;100.00;98281.81;4355573;32;20066;-76
2022/04/19 01:47:58;;;;;;;2.72;2.40;;;;;;;3.69;100.00;98306.22;4357141;32;20066;-76
2022/04/19 01:50:26;;;;;;;8.10;2.97;;;;;;;3.44;100.00;98277.81;4356128;32;20066;-77
2022/04/19 01:52:55;;;;;;;7.37;3.03;;;;;;;3.63;100.00;98292.75;4343080;32;20097;-78
2022/04/19 01:55:28;;;;;;;5.75;3.08;;;;;;;3.87;100.00;98308.87;4351798;32;20036;-78
2022/04/19 01:57:57;;;;;;;7.95;4.10;;;;;;;3.96;100.00;98318.19;4344338;33;20066;-77
2022/04/19 02:00:29;;;;;;;9.30;5.45;;;;;;;3.90;100.00;98311.09;4355403;32;20040;-81
2022/04/19 02:02:57;;;;;;;8.45;4.90;;;;;;;3.74;100.00;98277.09;4356095;32;20061;-77
2022/04/19 02:05:24;;;;;;;20.67;10.88;;;;;;;4.02;100.00;98321.81;4347654;32;20475;-78
2022/04/19 02:07:51;;;;;;;6.53;3.90;;;;;;;3.63;100.00;98281.31;4355025;32;20049;-78
2022/04/19 02:10:19;;;;;;;8.68;3.22;;;;;;;3.76;100.00;98322.94;4355125;32;20454;-77
2022/04/19 02:12:46;;;;;;;4.32;3.45;;;;;;;3.50;100.00;98276.94;4353827;32;20070;-84
2022/04/19 02:15:18;;;;;;;4.35;2.92;;;;;;;3.74;100.00;98319.69;4356331;32;20497;-77
2022/04/19 02:17:48;;;;;;;7.12;3.22;;;;;;;3.59;100.00;98323.53;4340678;33;20086;-78
2022/04/19 02:20:16;;;;;;;3.92;2.62;;;;;;;3.48;100.00;98316.28;4340487;33;20128;-77
2022/04/19 02:22:43;;;;;;;7.05;2.50;;;;;;;3.42;100.00;98317.16;4339588;32;20508;-85
2022/04/19 02:25:12;;;;;;;4.55;2.83;;;;;;;3.33;100.00;98310.50;4351886;32;20148;-78
2022/04/19 02:27:41;;;;;;;27.67;7.28;;;;;;;3.38;100.00;98318.63;4340958;32;20039;-77
2022/04/19 02:30:13;;;;;;;4.75;2.33;;;;;;;3.33;100.00;98313.16;4351667;32;20118;-78
2022/04/19 02:32:44;;;;;;;9.15;3.97;;;;;;;3.17;100.00;98309.22;4339443;32;20442;-78
2022/04/19 02:35:14;;;;;;;7.00;4.07;;;;;;;2.99;100.00;98304.69;4342169;32;20036;-77
2022/04/19 02:37:50;;;;;;;7.20;3.22;;;;;;;3.08;100.00;98316.69;4341156;33;20065;-77
2022/04/19 02:40:22;;;;;;;10.23;4.50;;;;;;;3.02;100.00;98301.59;4354003;32;20339;-82
2022/04/19 02:42:50;;;;;;;;;;;;;;;3.03;100.00;98308.53;4354936;32;20047;-77
2022/04/19 02:45:20;;;;;;;5.43;2.92;;;;;;;3.04;100.00;98299.50;4367788;32;19939;-77
2022/04/19 02:47:48;;;;;;;9.43;3.00;;;;;;;2.98;100.00;98295.88;4355479;33;20048;-78
2022/04/19 02:50:16;;;;;;;7.65;3.40;;;;;;;2.86;100.00;98271.84;4365916;32;20035;-79
2022/04/19 02:52:42;;;;;;;5.55;2.67;;;;;;;2.84;100.00;98259.78;4351910;33;20048;-77
2022/04/19 02:55:09;;;;;;;4.45;2.80;;;;;;;2.89;100.00;98244.03;4341480;33;20438;-77
2022/04/19 02:57:36;;;;;;;5.25;2.85;;;;;;;2.89;100.00;98244.03;4354700;33;20044;-77
2022/04/19 03:00:03;;;;;;;5.62;2.95;;;;;;;2.97;100.00;98266.84;4354202;33;20035;-80
2022/04/19 03:02:30;;;;;;;6.95;2.90;;;;;;;2.99;100.00;98265.59;4342241;33;20048;-77
2022/04/19 03:04:57;;;;;;;3.40;3.05;;;;;;;3.12;100.00;98285.94;4341534;33;20036;-77
2022/04/19 03:07:23;;;;;;;5.85;3.17;;;;;;;2.78;100.00;98253.53;4343567;33;21685;-77
2022/04/19 03:09:50;;;;;;;5.95;3.83;;;;;;;2.65;100.00;98242.97;4347353;33;20066;-77
2022/04/19 03:12:17;;;;;;;8.13;4.12;;;;;;;2.95;100.00;98295.50;4339358;33;20406;-77
2022/04/19 03:14:46;;;;;;;9.85;4.78;;;;;;;2.52;100.00;98234.09;4341729;33;20066;-76
2022/04/19 03:17:12;;;;;;;10.70;4.62;;;;;;;2.96;100.00;98302.47;4342094;33;20105;-77
2022/04/19 03:19:40;;;;;;;5.25;3.55;;;;;;;2.76;100.00;98284.84;4348582;33;20035;-77
2022/04/19 03:22:06;;;;;;;6.80;3.87;;;;;;;2.51;100.00;98255.59;4354599;33;20035;-83
2022/04/19 03:30:04;;;;;;;16.20;4.93;;;;;;;2.73;100.00;98309.19;4355421;32;20063;-76
2022/04/19 03:32:32;;;;;;;6.53;3.15;;;;;;;2.53;100.00;98310.13;4353624;32;20040;-77
2022/04/19 03:34:59;;;;;;;7.53;3.53;;;;;;;2.25;100.00;98275.16;4358661;32;20044;-77
2022/04/19 03:37:25;;;;;;;5.20;3.53;;;;;;;2.13;100.00;98257.25;4351796;32;20045;-81
2022/04/19 03:39:52;;;;;;;4.32;3.67;;;;;;;2.31;100.00;98301.72;4354611;32;20074;-77
2022/04/19 03:42:18;;;;;;;3.80;3.42;;;;;;;2.11;100.00;98269.16;4343406;32;20047;-76
2022/04/19 03:44:45;;;;;;;6.22;3.75;;;;;;;2.45;100.00;98313.06;4343469;33;20033;-76
2022/04/19 03:47:12;;;;;;;4.07;3.03;;;;;;;2.15;100.00;98271.16;4356333;32;20035;-76
2022/04/19 03:49:41;;;;;;;8.32;3.92;;;;;;;2.40;100.00;98315.53;4357442;32;20057;-78
2022/04/19 03:52:08;;;;;;;5.78;3.40;;;;;;;2.36;100.00;98303.69;4345590;32;20087;-77
2022/04/19 03:54:35;;;;;;;6.30;3.78;;;;;;;1.86;100.00;98226.59;4342825;33;20036;-76
2022/04/19 03:57:07;;;;;;;4.72;3.55;;;;;;;2.38;100.00;98301.66;4341820;32;20032;-76
2022/04/19 03:59:38;;;;;;;9.52;4.75;;;;;;;2.37;100.00;98308.00;4341202;32;20097;-76
2022/04/19 04:02:06;;;;;;;6.37;3.80;;;;;;;2.10;100.00;98270.16;4342625;33;20040;-77
2022/04/19 04:04:35;;;;;;;5.28;3.58;;;;;;;2.20;100.00;98269.69;4342346;33;20048;-76
2022/04/19 04:07:06;;;;;;;6.78;3.22;;;;;;;2.27;100.00;98286.41;4348711;33;20062;-75
2022/04/19 04:09:37;;;;;;;4.35;3.08;;;;;;;2.46;100.00;98317.34;4351362;32;20086;-75
2022/04/19 04:12:14;;;;;;;6.60;3.58;;;;;;;2.20;100.00;98285.63;4346927;32;20083;-74
2022/04/19 04:14:43;;;;;;;4.32;3.12;;;;;;;2.37;100.00;98311.47;4347879;32;20040;-74
2022/04/19 04:17:10;;;;;;;7.15;3.75;;;;;;;2.39;100.00;98313.91;4341273;32;20073;-74
2022/04/19 04:19:37;;;;;;;4.80;2.95;;;;;;;2.18;100.00;98275.22;4343170;33;20053;-74
2022/04/19 04:22:04;;;;;;;4.78;3.45;;;;;;;2.35;100.00;98302.09;4354497;32;20102;-74
2022/04/19 04:24:30;;;;;;;7.10;3.37;;;;;;;2.13;100.00;98278.50;4356533;32;20053;-74
2022/04/19 04:26:57;;;;;;;7.20;3.35;;;;;;;2.34;100.00;98311.88;4367344;32;20024;-74
2022/04/19 04:29:24;;;;;;;5.00;3.83;;;;;;;2.21;100.00;98274.78;4354556;32;20095;-75
2022/04/19 04:31:50;;;;;;;5.12;3.60;;;;;;;2.28;100.00;98285.37;4354529;32;20118;-75
2022/04/19 04:34:17;;;;;;;7.30;3.87;;;;;;;2.53;100.00;98320.75;4354814;32;20036;-73
2022/04/19 04:36:44;;;;;;;5.00;4.10;;;;;;;2.27;100.00;98284.56;4345808;32;20494;-74
2022/04/19 04:39:12;;;;;;;4.78;3.75;;;;;;;2.18;100.00;98294.63;4356591;32;20044;-84
2022/04/19 04:41:39;;;;;;;5.35;3.50;;;;;;;1.91;100.00;98242.69;4357333;32;20304;-74
2022/04/19 04:44:07;;;;;;;6.62;4.43;;;;;;;2.20;100.00;98288.28;4353786;32;20099;-74
2022/04/19 04:49:36;;;;;;;5.03;3.15;;;;;;;2.52;100.00;98328.94;4351629;32;20078;-74
2022/04/19 04:52:09;;;;;;;5.10;4.20;;;;;;;2.49;100.00;98332.87;4341613;33;20098;-74
2022/04/19 04:54:37;;;;;;;6.90;3.50;;;;;;;2.52;100.00;98344.88;4351678;32;20065;-73
2022/04/19 04:57:05;;;;;;;6.03;3.10;;;;;;;2.39;100.00;98345.78;4352459;32;20060;-74
2022/04/19 04:59:32;;;;;;;7.10;3.15;;;;;;;2.15;100.00;98307.50;4357319;32;20044;-73
2022/04/19 05:01:59;;;;;;;2.60;2.40;;;;;;;2.41;100.00;98337.59;4345355;32;20040;-74
2022/04/19 05:04:26;;;;;;;6.75;3.97;;;;;;;2.39;100.00;98345.78;4341225;32;20044;-74
2022/04/19 05:06:53;;;;;;;3.47;2.47;;;;;;;2.45;100.00;98344.94;4342706;32;20043;-74
2022/04/19 05:09:20;;;;;;;10.70;3.78;;;;;;;2.48;100.00;98354.34;4343773;32;20044;-75
2022/04/19 05:11:50;;;;;;;2.80;2.58;;;;;;;2.49;100.00;98351.47;4354622;32;20045;-75
2022/04/19 05:14:19;;;;;;;5.97;3.17;;;;;;;2.38;100.00;98306.97;4352942;32;20192;-76
2022/04/19 05:16:46;;;;;;;3.62;2.85;;;;;;;2.58;100.00;98344.03;4349331;32;20193;-76
2022/04/19 05:19:12;;;;;;;8.45;2.95;;;;;;;2.32;100.00;98286.59;4341165;33;20062;-75
2022/04/19 05:21:39;;;;;;;3.08;2.58;;;;;;;2.68;100.00;98349.72;4342333;32;20435;-75
2022/04/19 05:24:07;;;;;;;3.67;3.03;;;;;;;2.41;100.00;98303.91;4341663;33;20040;-81
2022/04/19 05:26:35;;;;;;;5.35;3.10;;;;;;;2.71;100.00;98351.09;4346180;32;20055;-75
2022/04/19 05:29:02;;;;;;;2.22;2.03;;;;;;;2.37;100.00;98308.81;4355350;32;20418;-76
2022/04/19 05:31:30;;;;;;;3.37;1.80;;;;;;;2.75;100.00;98356.84;4353996;32;20036;-75
2022/04/19 05:33:57;;;;;;;4.40;2.97;;;;;;;2.69;100.00;98343.34;4354867;32;20057;-82
2022/04/19 05:36:23;;;;;;;4.57;2.90;;;;;;;2.69;100.00;98355.84;4352772;32;20059;-75
2022/04/19 05:38:52;;;;;;;3.80;3.08;;;;;;;2.87;100.00;98353.25;4351239;32;20362;-75
2022/04/19 05:41:20;;;;;;;4.82;3.42;;;;;;;2.76;100.00;98350.47;4352486;32;20048;-75
2022/04/19 05:43:48;;;;;;;8.45;3.17;;;;;;;2.87;100.00;98358.56;4342014;33;20036;-75
2022/04/19 05:46:17;;;;;;;4.47;2.62;;;;;;;2.86;100.00;98362.25;4347411;32;20040;-75
2022/04/19 05:48:47;;;;;;;2.87;2.67;;;;;;;2.73;100.00;98344.56;4355085;32;20377;-75
2022/04/19 05:51:14;;;;;;;7.78;3.40;;;;;;;2.87;100.00;98357.75;4368537;32;20075;-76
2022/04/19 05:53:41;;;;;;;3.35;3.00;;;;;;;2.86;100.00;98362.25;4354295;32;20368;-74
2022/04/19 05:56:08;;;;;;;4.75;3.72;;;;;;;3.01;100.00;98363.78;4345389;32;20085;-75
2022/04/19 05:58:35;;;;;;;3.12;2.80;;;;;;;2.81;100.00;98359.44;4366006;32;20051;-74
2022/04/19 06:01:02;;;;;;;3.30;3.00;;;;;;;3.00;100.00;98365.62;4350258;32;20385;-74
2022/04/19 06:06:16;;;;;;;4.82;3.00;;;;;;;2.95;100.00;98380.59;4344024;32;20785;-75
2022/04/19 06:08:43;;;;;;;5.43;3.92;;;;;;;2.98;100.00;98385.50;4341944;33;20087;-73
2022/04/19 06:11:12;;;;;;;4.18;3.30;;;;;;;2.79;100.00;98339.41;4363668;32;20025;-75
2022/04/19 06:13:40;;;;;;;3.50;3.20;;;;;;;2.74;100.00;98326.75;4364497;32;20460;-79
2022/04/19 06:16:08;;;;;;;3.62;2.85;;;;;;;2.93;100.00;98356.88;4350395;32;20056;-74
2022/04/19 06:18:37;;;;;;;6.35;3.50;;;;;;;3.15;100.00;98381.25;4355866;32;20441;-74
2022/04/19 06:21:05;;;;;;;7.53;4.00;;;;;;;2.59;100.00;98328.94;4352917;32;20496;-76
2022/04/19 06:23:33;;;;;;;5.47;4.10;;;;;;;3.00;100.00;98388.75;4353961;32;20069;-81
2022/04/19 06:25:59;;;;;;;4.37;3.97;;;;;;;2.77;100.00;98355.56;4368345;32;20750;-74
2022/04/19 06:28:27;;;;;;;6.30;4.45;;;;;;;2.97;100.00;98389.16;4352239;32;20463;-73
2022/04/19 06:30:56;;;;;;;10.55;4.20;;;;;;;3.07;100.00;98405.47;4366548;32;20047;-73
2022/04/19 06:33:23;;;;;;;7.62;3.87;;;;;;;3.14;100.00;98406.22;4349253;32;20065;-74
2022/04/19 06:35:49;;;;;;;4.47;3.75;;;;;;;3.03;100.00;98398.94;4363207;32;20396;-74
2022/04/19 06:38:17;;;;;;;7.07;4.53;;;;;;;2.85;100.00;98365.94;4352546;32;20047;-73
2022/04/19 06:40:44;;;;;;;5.37;4.70;;;;;;;3.16;100.00;98393.53;4355409;32;20109;-73
2022/04/19 06:43:17;;;;;;;8.13;4.93;;;;;;;3.13;100.00;98393.13;4352882;32;20081;-73
2022/04/19 06:45:45;;;;;;;8.57;6.43;;;;;;;3.06;100.00;98398.53;4366321;32;20052;-73
2022/04/19 06:48:17;;;;;;;10.93;5.35;;;;;;;2.79;100.00;98382.75;4364987;32;20043;-74
2022/04/19 06:50:43;;;;;;;7.70;5.18;;;;;;;3.08;100.00;98388.50;4354314;33;20064;-73
2022/04/19 06:53:11;;;;;;;7.03;4.18;;;;;;;3.14;100.00;98408.09;4352931;33;20070;-74
2022/04/19 06:55:40;;;;;;;5.93;4.30;;;;;;;3.12;100.00;98412.81;4355951;33;20953;-73
2022/04/19 06:58:06;;;;;;;7.05;4.45;;;;;;;3.07;100.00;98400.16;4367546;32;20334;-74
2022/04/19 07:00:33;;;;;;;6.72;4.20;;;;;;;3.32;100.00;98415.31;4352074;33;20088;-74
2022/04/19 07:03:00;;;;;;;4.78;3.70;;;;;;;3.30;100.00;98422.69;4339246;33;20062;-74
2022/04/19 07:05:30;;;;;;;10.43;3.67;;;;;;;3.11;100.00;98372.06;4353199;32;20027;-74
2022/04/19 07:07:59;;;;;;;3.45;3.15;;;;;;;3.42;100.00;98418.28;4359205;32;20044;-75
2022/04/19 07:10:25;;;;;;;4.68;3.55;;;;;;;3.24;100.00;98384.47;4348178;32;20114;-74
2022/04/19 07:12:55;;;;;;;4.00;3.28;;;;;;;3.49;100.00;98421.69;4351272;32;20020;-74
2022/04/19 07:15:22;;;;;;;5.53;3.08;;;;;;;3.69;100.00;98423.37;4344127;32;20118;-75
2022/04/19 07:17:48;;;;;;;8.38;4.18;;;;;;;3.82;100.00;98428.56;4351632;33;20044;-74
2022/04/19 07:28:35;;;;;;;4.18;3.45;;;;;;;3.45;100.00;98391.25;4356770;32;20997;-74
2022/04/19 07:31:05;;;;;;;3.60;3.20;;;;;;;3.77;100.00;98399.13;4346368;32;20061;-74
2022/04/19 07:33:37;;;;;;;3.90;3.33;;;;;;;3.82;100.00;98425.91;4356916;32;20058;-74
2022/04/19 07:36:07;;;;;;;5.72;3.40;;;;;;;3.50;100.00;98382.59;4340664;33;20473;-74
2022/04/19 07:38:34;;;;;;;6.70;3.58;;;;;;;3.78;100.00;98448.66;4344117;33;20056;-74
2022/04/19 07:41:03;;;;;;;3.47;2.95;;;;;;;3.91;100.00;98448.56;4349947;32;20036;-74
2022/04/19 07:43:30;;;;;;;6.20;3.78;;;;;;;3.95;100.00;98425.75;4356962;33;20046;-75
2022/04/19 07:45:57;;;;;;;5.07;3.67;;;;;;;4.06;100.00;98450.03;4355745;32;20089;-78
2022/04/19 07:48:24;;;;;;;4.55;3.47;;;;;;;3.82;100.00;98417.91;4358131;32;20102;-73
2022/04/19 07:50:51;;;;;;;7.12;3.92;;;;;;;4.08;100.00;98463.94;4356755;32;20050;-73
2022/04/19 07:53:18;;;;;;;4.22;3.75;;;;;;;3.88;100.00;98464.97;4357776;32;20065;-74
2022/04/19 07:55:46;;;;;;;6.55;4.32;;;;;;;4.00;100.00;98468.56;4360567;32;20040;-73
2022/04/19 07:58:12;;;;;;;5.00;3.50;;;;;;;4.18;100.00;98461.59;4348160;32;20036;-73
2022/04/19 08:00:39;;;;;;;5.43;4.32;;;;;;;4.22;100.00;98464.62;4351138;32;20043;-73
2022/04/19 08:03:06;;;;;;;6.12;3.97;;;;;;;4.15;100.00;98454.84;4347937;32;20055;-75
2022/04/19 08:05:32;;;;;;;7.62;4.18;;;;;;;4.23;100.00;98476.91;4348694;32;20558;-73
2022/04/19 08:07:58;;;;;;;5.07;4.47;;;;;;;3.81;100.00;98433.09;4347845;32;20057;-78
2022/04/19 08:10:25;;;;;;;4.65;3.95;;;;;;;3.82;100.00;98463.19;4347985;32;20044;-74
2022/04/19 08:12:52;;;;;;;6.40;4.10;;;;;;;3.90;100.00;98489.53;4365943;32;20040;-73
2022/04/19 08:15:19;;;;;;;5.68;3.97;;;;;;;3.81;100.00;98480.19;4354672;32;20048;-73
2022/04/19 08:17:46;;;;;;;4.72;4.22;;;;;;;3.73;100.00;98448.53;4343731;33;20052;-73
2022/04/19 08:20:14;;;;;;;5.45;3.95;;;;;;;3.67;100.00;98499.97;4349082;32;20105;-75
2022/04/19 08:22:41;;;;;;;5.05;3.70;;;;;;;3.72;100.00;98455.72;4352029;32;20056;-74
2022/04/19 08:25:10;;;;;;;4.30;3.58;;;;;;;3.97;100.00;98500.97;4350319;32;20040;-74
2022/04/19 08:27:47;;;;;;;5.28;4.28;;;;;;;3.92;100.00;98465.34;4347426;32;20092;-74
2022/04/19 08:30:15;;;;;;;8.63;4.85;;;;;;;4.18;100.00;98505.03;4347549;32;20251;-74
2022/04/19 08:32:44;;;;;;;5.28;4.07;;;;;;;3.90;100.00;98462.91;4348332;32;20036;-75
2022/04/19 08:35:11;;;;;;;9.77;4.22;;;;;;;4.11;100.00;98484.81;4349685;32;20035;-74
2022/04/19 08:37:39;;;;;;;5.70;3.78;;;;;;;4.20;100.00;98504.81;4352810;32;20504;-78
2022/04/19 08:40:09;;;;;;;8.32;4.57;;;;;;;3.87;100.00;98468.66;4348656;33;20378;-75
2022/04/19 08:45:15;;;;;;;7.00;4.82;;;;;;;4.01;100.00;98517.31;4435807;32;20080;-77
2022/04/19 08:47:44;;;;;;;8.77;5.47;;;;;;;3.94;100.00;98517.38;4414993;32;20038;-77
2022/04/19 08:50:13;;;;;;;8.45;5.22;;;;;;;3.94;100.00;98522.69;4415400;32;20039;-75
2022/04/19 08:52:40;;;;;;;5.03;4.20;;;;;;;3.73;100.00;98483.13;4414264;32;20050;-74
2022/04/19 08:57:55;;;;;;;8.00;5.22;;;;;;;3.60;100.00;98490.19;4414366;32;20042;-75
2022/04/19 09:00:24;;;;;;;6.90;4.40;;;;;;;3.56;100.00;98510.31;4413071;32;20030;-75
2022/04/19 09:02:51;;;;;;;5.25;4.40;;;;;;;3.61;100.00;98529.09;4413509;32;20046;-75
2022/04/19 09:05:26;;;;;;;5.70;4.70;;;;;;;3.58;100.00;98516.22;4411747;32;20047;-78
2022/04/19 09:07:55;;;;;;;8.77;4.82;;;;;;;3.70;100.00;98540.31;4411817;32;20054;-75
2022/04/19 09:10:32;;;;;;;7.37;4.78;;;;;;;3.75;100.00;98534.31;4413023;32;20061;-75
2022/04/19 09:13:23;;;;;;;6.07;4.03;;;;;;;3.86;100.00;98543.47;4411379;32;20106;-76
2022/04/19 09:15:53;;;;;;;5.22;4.10;;;;;;;3.87;100.00;98543.25;4407516;32;20867;-75
2022/04/19 09:18:29;;;;;;;8.60;4.97;;;;;;;3.72;100.00;98502.81;4409725;32;20064;-77
2022/04/19 09:20:57;;;;;;;6.68;4.53;;;;;;;3.89;100.00;98519.06;4412167;32;20064;-74
2022/04/19 09:23:25;;;;;;;11.38;4.45;;;;;;;4.00;100.00;98524.50;4410391;32;20496;-75
2022/04/19 09:25:53;;;;;;;6.45;5.05;;;;;;;4.23;100.00;98536.38;4411395;32;20051;-75
2022/04/19 09:28:21;;;;;;;7.45;5.15;;;;;;;4.08;100.00;98511.91;4411605;32;20064;-75
2022/04/19 09:30:51;;;;;;;8.43;3.97;;;;;;;4.22;100.00;98518.75;4413503;32;20108;-75
2022/04/19 09:33:19;;;;;;;6.12;3.33;;;;;;;4.72;100.00;98539.94;4410990;32;20068;-73
2022/04/19 09:35:53;;;;;;;5.72;3.92;;;;;;;4.85;100.00;98530.13;4421980;32;20027;-74
2022/04/19 09:38:36;;;;;;;5.12;3.55;;;;;;;4.95;100.00;98506.41;4420705;32;20038;-75
2022/04/19 09:41:04;;;;;;;4.72;3.97;;;;;;;5.50;100.00;98545.44;4420180;32;20056;-74
2022/04/19 09:43:32;;;;;;;4.30;3.55;;;;;;;5.68;100.00;98544.56;4423005;32;20068;-75
2022/04/19 09:46:03;;;;;;;5.43;4.22;;;;;;;5.51;100.00;98519.56;4434221;32;20096;-75
2022/04/19 09:48:31;;;;;;;9.35;4.00;;;;;;;5.82;100.00;98548.66;4438391;32;20072;-74
2022/04/19 09:51:04;;;;;;;6.10;4.03;;;;;;;6.09;100.00;98548.22;4414657;32;20087;-74
2022/04/19 09:53:39;;;;;;;5.43;4.15;;;;;;;6.07;100.00;98512.91;4415456;32;20042;-75
2022/04/19 09:56:12;;;;;;;6.43;4.22;;;;;;;5.99;100.00;98515.94;4420190;32;20050;-75
2022/04/19 09:58:39;;;;;;;3.70;3.40;;;;;;;5.94;100.00;98523.81;4424962;32;20043;-74
2022/04/19 10:01:06;;;;;;;12.20;4.72;;;;;;;6.18;100.00;98552.19;4418171;32;20064;-75
2022/04/19 10:09:05;;;;;;;5.90;3.53;;;;;;;5.70;100.00;98520.31;4420930;32;20038;-74
2022/04/19 10:11:32;;;;;;;3.97;3.28;;;;;;;6.29;100.00;98568.47;4423214;32;20263;-74
2022/04/19 10:13:59;;;;;;;4.30;3.83;;;;;;;5.86;100.00;98537.50;4423827;32;20081;-74
2022/04/19 10:16:29;;;;;;;4.37;3.85;;;;;;;5.83;100.00;98558.28;4427065;32;20037;-74
2022/04/19 10:18:55;;;;;;;6.15;4.35;;;;;;;5.72;100.00;98569.78;4424943;32;20038;-78
2022/04/19 10:21:28;;;;;;;7.03;3.90;;;;;;;5.81;100.00;98568.41;4408274;32;20027;-76
2022/04/19 10:24:10;;;;;;;7.47;4.30;;;;;;;5.60;100.00;98560.91;4420903;32;20042;-74
2022/04/19 10:26:47;;;;;;;6.95;4.03;;;;;;;5.62;100.00;98532.13;4409711;32;20027;-76
2022/04/19 10:29:26;;;;;;;4.80;4.10;;;;;;;5.92;100.00;98579.31;4406336;32;20108;-74
2022/04/19 10:32:08;;;;;;;6.78;4.25;;;;;;;5.89;100.00;98569.94;4426879;32;20038;-73
2022/04/19 10:34:37;;;;;;;6.45;4.07;;;;;;;6.26;100.00;98568.94;4418993;32;20035;-74
2022/04/19 10:37:16;;;;;;;6.40;3.85;;;;;;;6.23;100.00;98585.44;4428213;32;20067;-76
2022/04/19 10:39:50;;;;;;;10.70;4.30;;;;;;;5.98;100.00;98589.97;4429472;32;20477;-74
2022/04/19 10:42:37;;;;;;;5.07;4.32;;;;;;;6.10;100.00;98581.94;4423753;32;20064;-74
2022/04/19 10:45:14;;;;;;;8.27;3.95;;;;;;;6.10;100.00;98552.53;4421601;32;20046;-73
2022/04/19 10:47:58;;;;;;;5.78;4.50;;;;;;;5.98;100.00;98552.53;4409826;32;20030;-75
2022/04/19 10:50:44;;;;;;;4.15;3.05;;;;;;;6.53;100.00;98590.66;4423258;32;20056;-74
2022/04/19 10:53:11;;;;;;;7.28;4.75;;;;;;;6.31;100.00;98598.47;4418147;32;20403;-75
2022/04/19 10:55:57;;;;;;;4.35;3.03;;;;;;;5.88;100.00;98599.53;4418095;32;20069;-73
2022/04/19 10:58:41;;;;;;;4.87;3.30;;;;;;;5.92;100.00;98601.53;4405063;32;20442;-72
2022/04/19 11:01:27;;;;;;;5.12;3.58;;;;;;;5.53;100.00;98573.56;4416595;32;20084;-72
2022/04/19 11:03:54;;;;;;;6.28;4.37;;;;;;;5.71;100.00;98610.91;4418242;32;20344;-72
2022/04/19 11:06:40;;;;;;;5.87;4.35;;;;;;;5.56;100.00;98578.44;4415333;32;20076;-73
2022/04/19 11:09:06;;;;;;;5.72;4.05;;;;;;;5.44;100.00;98581.91;4416872;32;20398;-73
2022/04/19 11:11:45;;;;;;;8.63;5.70;;;;;;;5.73;100.00;98618.69;4417436;32;20039;-73
2022/04/19 11:14:22;;;;;;;5.78;4.10;;;;;;;6.10;100.00;98623.91;4416547;32;20972;-73
2022/04/19 11:17:10;;;;;;;10.13;5.00;;;;;;;6.18;100.00;98632.38;4416269;32;20107;-73
2022/04/19 11:19:36;;;;;;;5.12;3.80;;;;;;;6.44;100.00;98614.25;4417404;32;20402;-73
2022/04/19 11:22:03;;;;;;;5.35;4.15;;;;;;;5.43;100.00;98483.34;4417223;32;20050;-74
2022/04/19 11:25:02;;;;;;;5.12;4.03;;;;;;;6.40;100.00;98629.16;4416449;32;20048;-73
2022/04/19 11:27:54;;;;;;;4.60;3.80;;;;;;;6.68;100.00;98622.28;4414082;32;20043;-74
2022/04/19 11:30:27;;;;;;;6.53;4.15;;;;;;;6.49;100.00;98629.63;4428126;32;20056;-75
2022/04/19 11:32:58;;;;;;;6.22;4.00;;;;;;;6.52;100.00;98627.28;4432396;32;20054;-74
2022/04/19 11:35:26;;;;;;;5.45;4.25;;;;;;;6.63;100.00;98632.88;4419103;32;20022;-74
2022/04/19 11:37:53;;;;;;;4.53;3.50;;;;;;;6.31;100.00;98614.50;4426771;32;20038;-73
2022/04/19 11:48:45;;;;;;;4.85;3.75;;;;;;;6.84;100.00;98613.53;4421392;32;20425;-73
2022/04/19 11:51:14;;;;;;;4.78;3.10;;;;;;;7.07;100.00;98611.88;4423933;32;20045;-73
2022/04/19 11:53:41;;;;;;;6.10;2.90;;;;;;;7.18;100.00;98608.34;4402690;32;20027;-77
2022/04/19 11:56:07;;;;;;;5.25;3.62;;;;;;;7.59;100.00;98619.81;4425165;32;20057;-73
2022/04/19 11:58:36;;;;;;;6.15;3.15;;;;;;;8.23;100.00;98594.59;4421413;32;20035;-72
2022/04/19 12:01:05;;;;;;;4.50;3.25;;;;;;;8.63;100.00;98623.16;4431706;32;20034;-73
2022/04/19 12:03:37;;;;;;;5.05;3.40;;;;;;;8.39;100.00;98619.78;4406825;32;20083;-73
2022/04/19 12:06:10;;;;;;;5.07;3.50;;;;;;;8.34;100.00;98619.72;4430131;32;20034;-73
2022/04/19 12:08:38;;;;;;;6.05;2.87;;;;;;;7.93;100.00;98582.34;4429940;32;20441;-72
2022/04/19 12:11:07;;;;;;;5.05;3.53;;;;;;;7.62;100.00;98597.91;4424960;32;20039;-73
2022/04/19 12:13:37;;;;;;;3.40;3.10;;;;;;;7.49;100.00;98582.13;4413437;32;20039;-73
2022/04/19 12:16:06;;;;;;;3.97;3.55;;;;;;;7.74;100.00;98626.53;4415416;32;20077;-73
2022/04/19 12:18:37;;;;;;;4.70;3.17;;;;;;;7.69;100.00;98623.72;4416096;32;20075;-73
2022/04/19 12:21:05;;;;;;;4.70;3.45;;;;;;;7.09;100.00;98581.13;4421681;32;20066;-74
2022/04/19 12:23:38;;;;;;;4.10;3.15;;;;;;;7.00;100.00;98622.69;4400425;32;20037;-72